sensor_id;sensor_type;location;lat;lon;timestamp;pressure;altitude;pressure_sealevel;temperature;humidity
41250;BME280;26984;59.928;30.306;2023-03-01T00:00:09;101167.88;;;-3.42;82.18
41250;BME280;26984;59.928;30.306;2023-03-01T00:02:37;101150.91;;;-3.38;82.22
41250;BME280;26984;59.928;30.306;2023-03-01T00:05:05;101140.50;;;-3.28;81.14
41250;BME280;26984;59.928;30.306;2023-03-01T00:07:33;101145.53;;;-3.25;80.89
41250;BME280;26984;59.928;30.306;2023-03-01T00:10:00;101142.06;;;-3.25;81.67
41250;BME280;26984;59.928;30.306;2023-03-01T00:12:29;101149.63;;;-3.21;81.44
41250;BME280;26984;59.928;30.306;2023-03-01T00:14:58;101160.03;;;-3.30;82.17
41250;BME280;26984;59.928;30.306;2023-03-01T00:17:26;101171.28;;;-3.28;81.23
41250;BME280;26984;59.928;30.306;2023-03-01T00:19:54;101153.00;;;-3.19;81.49
41250;BME280;26984;59.928;30.306;2023-03-01T00:22:22;101165.06;;;-3.27;82.13
41250;BME280;26984;59.928;30.306;2023-03-01T00:24:49;101163.53;;;-3.19;81.46
41250;BME280;26984;59.928;30.306;2023-03-01T00:27:17;101157.75;;;-3.24;82.95
41250;BME280;26984;59.928;30.306;2023-03-01T00:29:46;101156.59;;;-3.20;82.58
41250;BME280;26984;59.928;30.306;2023-03-01T00:32:13;101171.72;;;-3.34;83.12
41250;BME280;26984;59.928;30.306;2023-03-01T00:34:41;101168.16;;;-3.33;84.03
41250;BME280;26984;59.928;30.306;2023-03-01T00:37:08;101163.78;;;-3.22;84.06
41250;BME280;26984;59.928;30.306;2023-03-01T00:39:36;101163.03;;;-3.24;85.02
41250;BME280;26984;59.928;30.306;2023-03-01T00:42:04;101157.66;;;-3.22;85.18
41250;BME280;26984;59.928;30.306;2023-03-01T00:44:31;101156.59;;;-3.20;85.19
41250;BME280;26984;59.928;30.306;2023-03-01T00:47:01;101153.34;;;-3.23;85.80
41250;BME280;26984;59.928;30.306;2023-03-01T00:49:29;101173.03;;;-3.16;86.38
41250;BME280;26984;59.928;30.306;2023-03-01T00:51:56;101171.22;;;-3.16;85.79
41250;BME280;26984;59.928;30.306;2023-03-01T00:54:24;101153.97;;;-3.20;86.76
41250;BME280;26984;59.928;30.306;2023-03-01T00:56:51;101159.94;;;-3.18;86.43
41250;BME280;26984;59.928;30.306;2023-03-01T00:59:19;101165.84;;;-3.14;85.93
41250;BME280;26984;59.928;30.306;2023-03-01T01:01:48;101156.63;;;-3.08;85.83
41250;BME280;26984;59.928;30.306;2023-03-01T01:04:17;101173.78;;;-3.03;86.13
41250;BME280;26984;59.928;30.306;2023-03-01T01:06:45;101165.84;;;-3.03;85.02
41250;BME280;26984;59.928;30.306;2023-03-01T01:09:13;101166.13;;;-3.06;85.90
41250;BME280;26984;59.928;30.306;2023-03-01T01:11:45;101161.19;;;-2.99;85.43
41250;BME280;26984;59.928;30.306;2023-03-01T01:14:14;101146.94;;;-2.97;85.74
41250;BME280;26984;59.928;30.306;2023-03-01T01:16:41;101159.16;;;-2.96;85.35
41250;BME280;26984;59.928;30.306;2023-03-01T01:19:09;101171.91;;;-2.90;85.16
41250;BME280;26984;59.928;30.306;2023-03-01T01:21:38;101161.31;;;-3.01;86.73
41250;BME280;26984;59.928;30.306;2023-03-01T01:24:08;101171.41;;;-2.95;85.96
41250;BME280;26984;59.928;30.306;2023-03-01T01:26:36;101171.66;;;-2.86;85.79
41250;BME280;26984;59.928;30.306;2023-03-01T01:29:04;101173.56;;;-2.89;86.34
41250;BME280;26984;59.928;30.306;2023-03-01T01:31:31;101170.84;;;-2.87;86.34
41250;BME280;26984;59.928;30.306;2023-03-01T01:34:00;101181.25;;;-2.85;86.62
41250;BME280;26984;59.928;30.306;2023-03-01T01:36:28;101181.72;;;-2.92;86.17
41250;BME280;26984;59.928;30.306;2023-03-01T01:38:57;101162.53;;;-2.94;87.15
41250;BME280;26984;59.928;30.306;2023-03-01T01:41:25;101170.22;;;-2.91;86.50
41250;BME280;26984;59.928;30.306;2023-03-01T01:46:35;101176.41;;;-3.03;87.66
41250;BME280;26984;59.928;30.306;2023-03-01T01:49:05;101180.75;;;-3.02;88.62
41250;BME280;26984;59.928;30.306;2023-03-01T01:51:35;101163.13;;;-3.01;88.76
41250;BME280;26984;59.928;30.306;2023-03-01T01:54:08;101166.22;;;-3.07;89.29
41250;BME280;26984;59.928;30.306;2023-03-01T01:56:36;101164.94;;;-3.02;89.81
41250;BME280;26984;59.928;30.306;2023-03-01T01:59:04;101174.38;;;-2.99;88.94
41250;BME280;26984;59.928;30.306;2023-03-01T02:01:32;101166.81;;;-3.04;89.35
41250;BME280;26984;59.928;30.306;2023-03-01T02:04:00;101189.22;;;-3.09;90.28
41250;BME280;26984;59.928;30.306;2023-03-01T02:06:28;101185.28;;;-3.04;90.88
41250;BME280;26984;59.928;30.306;2023-03-01T02:08:59;101180.84;;;-3.03;90.71
41250;BME280;26984;59.928;30.306;2023-03-01T02:11:30;101184.28;;;-3.14;91.70
41250;BME280;26984;59.928;30.306;2023-03-01T02:13:58;101185.03;;;-3.12;92.55
41250;BME280;26984;59.928;30.306;2023-03-01T02:16:26;101191.25;;;-3.13;92.65
41250;BME280;26984;59.928;30.306;2023-03-01T02:18:54;101197.91;;;-3.20;93.51
41250;BME280;26984;59.928;30.306;2023-03-01T02:21:30;101197.34;;;-3.13;94.25
41250;BME280;26984;59.928;30.306;2023-03-01T02:24:02;101195.66;;;-3.14;94.28
41250;BME280;26984;59.928;30.306;2023-03-01T02:26:36;101181.53;;;-3.13;93.94
41250;BME280;26984;59.928;30.306;2023-03-01T02:29:09;101199.69;;;-3.21;95.66
41250;BME280;26984;59.928;30.306;2023-03-01T02:31:36;101196.44;;;-3.24;95.87
41250;BME280;26984;59.928;30.306;2023-03-01T02:34:12;101201.00;;;-3.26;96.28
41250;BME280;26984;59.928;30.306;2023-03-01T02:36:41;101193.72;;;-3.23;96.88
41250;BME280;26984;59.928;30.306;2023-03-01T02:39:11;101202.69;;;-3.25;96.84
41250;BME280;26984;59.928;30.306;2023-03-01T02:41:42;101199.22;;;-3.26;97.54
41250;BME280;26984;59.928;30.306;2023-03-01T02:44:11;101206.50;;;-3.29;97.32
41250;BME280;26984;59.928;30.306;2023-03-01T02:46:42;101204.59;;;-3.27;97.59
41250;BME280;26984;59.928;30.306;2023-03-01T02:49:24;101206.28;;;-3.26;97.94
41250;BME280;26984;59.928;30.306;2023-03-01T02:51:56;101199.25;;;-3.39;98.42
41250;BME280;26984;59.928;30.306;2023-03-01T02:54:29;101198.94;;;-3.34;99.23
41250;BME280;26984;59.928;30.306;2023-03-01T02:56:59;101194.81;;;-3.38;99.33
41250;BME280;26984;59.928;30.306;2023-03-01T02:59:32;101184.13;;;-3.24;97.91
41250;BME280;26984;59.928;30.306;2023-03-01T03:02:06;101184.47;;;-3.28;97.32
41250;BME280;26984;59.928;30.306;2023-03-01T03:04:33;101194.44;;;-3.21;97.33
41250;BME280;26984;59.928;30.306;2023-03-01T03:07:01;101201.69;;;-3.35;98.39
41250;BME280;26984;59.928;30.306;2023-03-01T03:09:29;101193.78;;;-3.35;98.14
41250;BME280;26984;59.928;30.306;2023-03-01T03:11:56;101197.16;;;-3.33;98.33
41250;BME280;26984;59.928;30.306;2023-03-01T03:14:25;101191.75;;;-3.32;98.59
41250;BME280;26984;59.928;30.306;2023-03-01T03:16:54;101191.53;;;-3.29;98.14
41250;BME280;26984;59.928;30.306;2023-03-01T03:19:21;101187.22;;;-3.30;97.93
41250;BME280;26984;59.928;30.306;2023-03-01T03:21:49;101179.63;;;-3.34;98.52
41250;BME280;26984;59.928;30.306;2023-03-01T03:24:16;101194.94;;;-3.40;99.15
41250;BME280;26984;59.928;30.306;2023-03-01T03:26:44;101192.38;;;-3.52;99.42
41250;BME280;26984;59.928;30.306;2023-03-01T03:29:11;101200.88;;;-3.49;99.66
41250;BME280;26984;59.928;30.306;2023-03-01T03:31:39;101199.44;;;-3.53;100.00
41250;BME280;26984;59.928;30.306;2023-03-01T03:34:08;101203.50;;;-3.49;99.78
41250;BME280;26984;59.928;30.306;2023-03-01T03:36:43;101202.28;;;-3.56;100.00
41250;BME280;26984;59.928;30.306;2023-03-01T03:39:10;101207.84;;;-3.48;99.88
41250;BME280;26984;59.928;30.306;2023-03-01T03:41:38;101197.53;;;-3.51;99.88
41250;BME280;26984;59.928;30.306;2023-03-01T03:44:05;101207.84;;;-3.48;99.26
41250;BME280;26984;59.928;30.306;2023-03-01T03:46:33;101213.22;;;-3.49;99.37
41250;BME280;26984;59.928;30.306;2023-03-01T03:49:01;101210.59;;;-3.49;99.54
41250;BME280;26984;59.928;30.306;2023-03-01T03:51:29;101196.56;;;-3.50;99.27
41250;BME280;26984;59.928;30.306;2023-03-01T03:53:57;101211.06;;;-3.55;99.28
41250;BME280;26984;59.928;30.306;2023-03-01T03:56:24;101198.50;;;-3.52;99.30
41250;BME280;26984;59.928;30.306;2023-03-01T03:58:52;101213.06;;;-3.59;99.84
41250;BME280;26984;59.928;30.306;2023-03-01T04:01:19;101227.28;;;-3.62;100.00
41250;BME280;26984;59.928;30.306;2023-03-01T04:03:47;101214.81;;;-3.59;99.89
41250;BME280;26984;59.928;30.306;2023-03-01T04:06:14;101221.47;;;-3.54;99.81
41250;BME280;26984;59.928;30.306;2023-03-01T04:08:43;101218.94;;;-3.55;99.35
41250;BME280;26984;59.928;30.306;2023-03-01T04:11:10;101218.44;;;-3.61;100.00
41250;BME280;26984;59.928;30.306;2023-03-01T04:13:54;101218.56;;;-3.62;100.00
41250;BME280;26984;59.928;30.306;2023-03-01T04:16:22;101209.91;;;-3.64;100.00
41250;BME280;26984;59.928;30.306;2023-03-01T04:18:49;101202.22;;;-3.67;100.00
41250;BME280;26984;59.928;30.306;2023-03-01T04:21:18;101199.53;;;-3.78;100.00
41250;BME280;26984;59.928;30.306;2023-03-01T04:23:47;101211.63;;;-3.76;100.00
41250;BME280;26984;59.928;30.306;2023-03-01T04:26:18;101203.94;;;-3.79;100.00
41250;BME280;26984;59.928;30.306;2023-03-01T04:28:46;101211.56;;;-4.00;100.00
41250;BME280;26984;59.928;30.306;2023-03-01T04:31:17;101214.06;;;-3.86;100.00
41250;BME280;26984;59.928;30.306;2023-03-01T04:33:47;101221.88;;;-3.84;100.00
41250;BME280;26984;59.928;30.306;2023-03-01T04:36:17;101218.91;;;-3.79;100.00
41250;BME280;26984;59.928;30.306;2023-03-01T04:38:45;101227.53;;;-3.77;100.00
41250;BME280;26984;59.928;30.306;2023-03-01T04:41:16;101209.84;;;-3.75;100.00
41250;BME280;26984;59.928;30.306;2023-03-01T04:43:43;101210.59;;;-3.86;100.00
41250;BME280;26984;59.928;30.306;2023-03-01T04:46:11;101220.78;;;-3.81;100.00
41250;BME280;26984;59.928;30.306;2023-03-01T04:48:39;101220.59;;;-3.78;100.00
41250;BME280;26984;59.928;30.306;2023-03-01T04:51:07;101235.53;;;-3.79;100.00
41250;BME280;26984;59.928;30.306;2023-03-01T04:53:35;101245.53;;;-3.71;100.00
41250;BME280;26984;59.928;30.306;2023-03-01T04:56:03;101247.09;;;-3.69;100.00
41250;BME280;26984;59.928;30.306;2023-03-01T04:58:32;101248.78;;;-3.68;100.00
41250;BME280;26984;59.928;30.306;2023-03-01T05:00:59;101251.47;;;-3.80;100.00
41250;BME280;26984;59.928;30.306;2023-03-01T05:03:27;101252.81;;;-3.75;100.00
41250;BME280;26984;59.928;30.306;2023-03-01T05:05:58;101259.78;;;-3.87;100.00
41250;BME280;26984;59.928;30.306;2023-03-01T05:08:26;101255.16;;;-3.83;100.00
41250;BME280;26984;59.928;30.306;2023-03-01T05:10:54;101261.66;;;-3.89;100.00
41250;BME280;26984;59.928;30.306;2023-03-01T05:13:21;101262.75;;;-3.91;100.00
41250;BME280;26984;59.928;30.306;2023-03-01T05:15:53;101260.13;;;-3.91;100.00
41250;BME280;26984;59.928;30.306;2023-03-01T05:18:21;101262.50;;;-3.88;100.00
41250;BME280;26984;59.928;30.306;2023-03-01T05:20:51;101265.38;;;-3.91;100.00
41250;BME280;26984;59.928;30.306;2023-03-01T05:23:22;101252.63;;;-3.97;100.00
41250;BME280;26984;59.928;30.306;2023-03-01T05:25:49;101262.84;;;-3.93;100.00
41250;BME280;26984;59.928;30.306;2023-03-01T05:28:18;101261.16;;;-3.94;100.00
41250;BME280;26984;59.928;30.306;2023-03-01T05:30:46;101256.75;;;-3.93;100.00
41250;BME280;26984;59.928;30.306;2023-03-01T05:33:18;101254.53;;;-3.87;100.00
41250;BME280;26984;59.928;30.306;2023-03-01T05:35:48;101252.38;;;-3.81;100.00
41250;BME280;26984;59.928;30.306;2023-03-01T05:38:16;101249.22;;;-3.74;100.00
41250;BME280;26984;59.928;30.306;2023-03-01T05:40:44;101252.38;;;-3.69;100.00
41250;BME280;26984;59.928;30.306;2023-03-01T05:43:12;101263.09;;;-3.59;100.00
41250;BME280;26984;59.928;30.306;2023-03-01T05:45:40;101266.88;;;-3.63;100.00
41250;BME280;26984;59.928;30.306;2023-03-01T05:48:08;101264.03;;;-3.60;100.00
41250;BME280;26984;59.928;30.306;2023-03-01T05:50:38;101272.41;;;-3.66;100.00
41250;BME280;26984;59.928;30.306;2023-03-01T05:53:07;101258.97;;;-3.63;100.00
41250;BME280;26984;59.928;30.306;2023-03-01T05:55:36;101262.22;;;-3.59;100.00
41250;BME280;26984;59.928;30.306;2023-03-01T05:58:04;101262.78;;;-3.54;100.00
41250;BME280;26984;59.928;30.306;2023-03-01T06:00:32;101263.81;;;-3.57;100.00
41250;BME280;26984;59.928;30.306;2023-03-01T06:02:59;101277.94;;;-3.58;100.00
41250;BME280;26984;59.928;30.306;2023-03-01T06:05:27;101263.09;;;-3.59;100.00
41250;BME280;26984;59.928;30.306;2023-03-01T06:07:57;101256.44;;;-3.52;100.00
41250;BME280;26984;59.928;30.306;2023-03-01T06:10:25;101263.25;;;-3.49;100.00
41250;BME280;26984;59.928;30.306;2023-03-01T06:12:53;101242.41;;;-3.52;100.00
41250;BME280;26984;59.928;30.306;2023-03-01T06:15:20;101273.59;;;-3.46;100.00
41250;BME280;26984;59.928;30.306;2023-03-01T06:17:48;101271.38;;;-3.52;100.00
41250;BME280;26984;59.928;30.306;2023-03-01T06:20:16;101266.25;;;-3.54;100.00
41250;BME280;26984;59.928;30.306;2023-03-01T06:22:44;101262.34;;;-3.48;100.00
41250;BME280;26984;59.928;30.306;2023-03-01T06:25:14;101264.22;;;-3.50;100.00
41250;BME280;26984;59.928;30.306;2023-03-01T06:27:43;101246.53;;;-3.48;100.00
41250;BME280;26984;59.928;30.306;2023-03-01T06:30:12;101259.44;;;-3.45;100.00
41250;BME280;26984;59.928;30.306;2023-03-01T06:32:39;101266.22;;;-3.41;100.00
41250;BME280;26984;59.928;30.306;2023-03-01T06:35:08;101253.03;;;-3.41;100.00
41250;BME280;26984;59.928;30.306;2023-03-01T06:37:36;101255.88;;;-3.44;100.00
41250;BME280;26984;59.928;30.306;2023-03-01T06:40:04;101267.66;;;-3.37;100.00
41250;BME280;26984;59.928;30.306;2023-03-01T06:42:35;101247.22;;;-3.33;100.00
41250;BME280;26984;59.928;30.306;2023-03-01T06:45:03;101263.03;;;-3.33;100.00
41250;BME280;26984;59.928;30.306;2023-03-01T06:47:31;101256.84;;;-3.21;100.00
41250;BME280;26984;59.928;30.306;2023-03-01T06:49:59;101265.44;;;-3.30;100.00
41250;BME280;26984;59.928;30.306;2023-03-01T06:52:26;101267.72;;;-3.26;100.00
41250;BME280;26984;59.928;30.306;2023-03-01T06:54:53;101267.94;;;-3.29;100.00
41250;BME280;26984;59.928;30.306;2023-03-01T06:57:21;101254.03;;;-3.31;100.00
41250;BME280;26984;59.928;30.306;2023-03-01T06:59:50;101265.34;;;-3.42;100.00
41250;BME280;26984;59.928;30.306;2023-03-01T07:02:17;101247.88;;;-3.43;100.00
41250;BME280;26984;59.928;30.306;2023-03-01T07:04:45;101258.13;;;-3.51;100.00
41250;BME280;26984;59.928;30.306;2023-03-01T07:07:12;101277.41;;;-3.50;100.00
41250;BME280;26984;59.928;30.306;2023-03-01T07:09:40;101250.09;;;-3.49;100.00
41250;BME280;26984;59.928;30.306;2023-03-01T07:12:07;101250.94;;;-3.49;100.00
41250;BME280;26984;59.928;30.306;2023-03-01T07:14:35;101260.06;;;-3.42;100.00
41250;BME280;26984;59.928;30.306;2023-03-01T07:17:04;101255.56;;;-3.40;100.00
41250;BME280;26984;59.928;30.306;2023-03-01T07:19:31;101262.28;;;-3.35;100.00
41250;BME280;26984;59.928;30.306;2023-03-01T07:21:59;101259.47;;;-3.21;100.00
41250;BME280;26984;59.928;30.306;2023-03-01T07:24:26;101253.81;;;-3.28;100.00
41250;BME280;26984;59.928;30.306;2023-03-01T07:26:54;101251.00;;;-3.14;100.00
41250;BME280;26984;59.928;30.306;2023-03-01T07:29:21;101256.22;;;-3.25;100.00
41250;BME280;26984;59.928;30.306;2023-03-01T07:31:49;101257.81;;;-3.22;100.00
41250;BME280;26984;59.928;30.306;2023-03-01T07:34:18;101257.81;;;-3.22;100.00
41250;BME280;26984;59.928;30.306;2023-03-01T07:36:45;101265.50;;;-3.19;100.00
41250;BME280;26984;59.928;30.306;2023-03-01T07:39:13;101260.31;;;-3.21;100.00
41250;BME280;26984;59.928;30.306;2023-03-01T07:41:40;101245.59;;;-3.23;100.00
41250;BME280;26984;59.928;30.306;2023-03-01T07:44:08;101249.50;;;-3.29;100.00
41250;BME280;26984;59.928;30.306;2023-03-01T07:46:35;101254.16;;;-3.32;100.00
41250;BME280;26984;59.928;30.306;2023-03-01T07:49:03;101260.53;;;-3.24;100.00
41250;BME280;26984;59.928;30.306;2023-03-01T07:51:32;101248.72;;;-3.18;100.00
41250;BME280;26984;59.928;30.306;2023-03-01T07:54:00;101238.69;;;-3.13;100.00
41250;BME280;26984;59.928;30.306;2023-03-01T07:56:27;101240.25;;;-3.10;100.00
41250;BME280;26984;59.928;30.306;2023-03-01T07:58:55;101234.31;;;-3.01;100.00
41250;BME280;26984;59.928;30.306;2023-03-01T08:01:22;101234.91;;;-2.98;100.00
41250;BME280;26984;59.928;30.306;2023-03-01T08:03:50;101221.38;;;-2.93;100.00
41250;BME280;26984;59.928;30.306;2023-03-01T08:06:17;101215.28;;;-2.94;100.00
41250;BME280;26984;59.928;30.306;2023-03-01T08:08:46;101213.72;;;-2.85;100.00
41250;BME280;26984;59.928;30.306;2023-03-01T08:11:14;101213.63;;;-2.83;100.00
41250;BME280;26984;59.928;30.306;2023-03-01T08:13:42;101222.41;;;-2.72;100.00
41250;BME280;26984;59.928;30.306;2023-03-01T08:16:11;101218.72;;;-2.58;100.00
41250;BME280;26984;59.928;30.306;2023-03-01T08:18:38;101211.63;;;-2.69;100.00
41250;BME280;26984;59.928;30.306;2023-03-01T08:21:06;101200.34;;;-2.71;100.00
41250;BME280;26984;59.928;30.306;2023-03-01T08:23:34;101201.22;;;-2.59;100.00
41250;BME280;26984;59.928;30.306;2023-03-01T08:26:08;101218.59;;;-2.56;100.00
41250;BME280;26984;59.928;30.306;2023-03-01T08:28:36;101214.19;;;-2.56;100.00
41250;BME280;26984;59.928;30.306;2023-03-01T08:31:04;101223.38;;;-2.61;100.00
41250;BME280;26984;59.928;30.306;2023-03-01T08:33:39;101230.69;;;-2.65;100.00
41250;BME280;26984;59.928;30.306;2023-03-01T08:36:07;101243.88;;;-2.65;100.00
41250;BME280;26984;59.928;30.306;2023-03-01T08:38:35;101238.81;;;-2.79;100.00
41250;BME280;26984;59.928;30.306;2023-03-01T08:41:03;101248.34;;;-2.90;100.00
41250;BME280;26984;59.928;30.306;2023-03-01T08:43:32;101221.78;;;-2.86;100.00
41250;BME280;26984;59.928;30.306;2023-03-01T08:45:59;101215.66;;;-2.87;100.00
41250;BME280;26984;59.928;30.306;2023-03-01T08:48:27;101229.41;;;-2.95;100.00
41250;BME280;26984;59.928;30.306;2023-03-01T08:50:55;101218.38;;;-2.89;100.00
41250;BME280;26984;59.928;30.306;2023-03-01T08:53:22;101228.38;;;-2.81;100.00
41250;BME280;26984;59.928;30.306;2023-03-01T08:55:50;101223.72;;;-2.77;100.00
41250;BME280;26984;59.928;30.306;2023-03-01T08:58:17;101250.34;;;-2.69;100.00
41250;BME280;26984;59.928;30.306;2023-03-01T09:00:46;101227.59;;;-2.70;100.00
41250;BME280;26984;59.928;30.306;2023-03-01T09:03:13;101209.38;;;-2.62;100.00
41250;BME280;26984;59.928;30.306;2023-03-01T09:05:41;101198.81;;;-2.51;100.00
41250;BME280;26984;59.928;30.306;2023-03-01T09:08:08;101197.16;;;-2.52;100.00
41250;BME280;26984;59.928;30.306;2023-03-01T09:10:37;101189.63;;;-2.45;100.00
41250;BME280;26984;59.928;30.306;2023-03-01T09:13:05;101199.34;;;-2.34;100.00
41250;BME280;26984;59.928;30.306;2023-03-01T09:15:32;101218.19;;;-2.17;100.00
41250;BME280;26984;59.928;30.306;2023-03-01T09:18:01;101206.19;;;-2.09;100.00
41250;BME280;26984;59.928;30.306;2023-03-01T09:20:29;101201.97;;;-2.01;100.00
41250;BME280;26984;59.928;30.306;2023-03-01T09:22:57;101200.75;;;-1.85;100.00
41250;BME280;26984;59.928;30.306;2023-03-01T09:25:25;101206.28;;;-2.00;100.00
41250;BME280;26984;59.928;30.306;2023-03-01T09:27:52;101212.75;;;-1.93;100.00
41250;BME280;26984;59.928;30.306;2023-03-01T09:30:20;101208.69;;;-1.97;100.00
41250;BME280;26984;59.928;30.306;2023-03-01T09:32:48;101199.81;;;-1.96;100.00
41250;BME280;26984;59.928;30.306;2023-03-01T09:35:17;101207.47;;;-2.04;100.00
41250;BME280;26984;59.928;30.306;2023-03-01T09:37:45;101213.59;;;-2.03;100.00
41250;BME280;26984;59.928;30.306;2023-03-01T09:40:16;101189.00;;;-2.04;100.00
41250;BME280;26984;59.928;30.306;2023-03-01T09:42:49;101211.81;;;-2.03;100.00
41250;BME280;26984;59.928;30.306;2023-03-01T09:45:23;101196.22;;;-2.06;100.00
41250;BME280;26984;59.928;30.306;2023-03-01T09:47:52;101181.81;;;-2.02;100.00
41250;BME280;26984;59.928;30.306;2023-03-01T09:50:21;101168.00;;;-1.94;100.00
41250;BME280;26984;59.928;30.306;2023-03-01T09:52:50;101177.47;;;-1.91;100.00
41250;BME280;26984;59.928;30.306;2023-03-01T09:55:24;101178.50;;;-1.72;100.00
41250;BME280;26984;59.928;30.306;2023-03-01T09:57:53;101191.72;;;-1.72;100.00
41250;BME280;26984;59.928;30.306;2023-03-01T10:00:26;101194.72;;;-1.65;100.00
41250;BME280;26984;59.928;30.306;2023-03-01T10:02:57;101176.69;;;-1.71;100.00
41250;BME280;26984;59.928;30.306;2023-03-01T10:05:34;101176.22;;;-1.65;100.00
41250;BME280;26984;59.928;30.306;2023-03-01T10:08:06;101175.97;;;-1.62;100.00
41250;BME280;26984;59.928;30.306;2023-03-01T10:10:43;101178.03;;;-1.65;100.00
41250;BME280;26984;59.928;30.306;2023-03-01T10:13:13;101164.69;;;-1.64;100.00
41250;BME280;26984;59.928;30.306;2023-03-01T10:15:44;101179.00;;;-1.66;100.00
41250;BME280;26984;59.928;30.306;2023-03-01T10:18:12;101185.72;;;-1.62;100.00
41250;BME280;26984;59.928;30.306;2023-03-01T10:20:45;101156.66;;;-1.62;100.00
41250;BME280;26984;59.928;30.306;2023-03-01T10:23:14;101151.84;;;-1.69;100.00
41250;BME280;26984;59.928;30.306;2023-03-01T10:25:44;101149.94;;;-1.66;100.00
41250;BME280;26984;59.928;30.306;2023-03-01T10:28:16;101139.56;;;-1.58;100.00
41250;BME280;26984;59.928;30.306;2023-03-01T10:30:44;101144.31;;;-1.41;100.00
41250;BME280;26984;59.928;30.306;2023-03-01T10:33:14;101148.81;;;-1.21;100.00
41250;BME280;26984;59.928;30.306;2023-03-01T10:35:44;101142.94;;;-1.24;100.00
41250;BME280;26984;59.928;30.306;2023-03-01T10:38:13;101154.50;;;-1.36;100.00
41250;BME280;26984;59.928;30.306;2023-03-01T10:40:51;101132.78;;;-1.40;100.00
41250;BME280;26984;59.928;30.306;2023-03-01T10:43:20;101131.50;;;-1.46;100.00
41250;BME280;26984;59.928;30.306;2023-03-01T10:45:48;101130.72;;;-1.36;100.00
41250;BME280;26984;59.928;30.306;2023-03-01T10:48:17;101118.03;;;-1.22;100.00
41250;BME280;26984;59.928;30.306;2023-03-01T10:50:47;101122.88;;;-1.27;100.00
41250;BME280;26984;59.928;30.306;2023-03-01T10:53:25;101117.59;;;-1.27;100.00
41250;BME280;26984;59.928;30.306;2023-03-01T10:55:58;101115.13;;;-1.18;100.00
41250;BME280;26984;59.928;30.306;2023-03-01T10:58:27;101106.44;;;-1.09;100.00
41250;BME280;26984;59.928;30.306;2023-03-01T11:00:55;101099.09;;;-1.06;100.00
41250;BME280;26984;59.928;30.306;2023-03-01T11:03:26;101090.56;;;-1.09;100.00
41250;BME280;26984;59.928;30.306;2023-03-01T11:05:56;101095.38;;;-1.14;100.00
41250;BME280;26984;59.928;30.306;2023-03-01T11:08:33;101094.75;;;-1.07;100.00
41250;BME280;26984;59.928;30.306;2023-03-01T11:11:03;101085.94;;;-1.17;100.00
41250;BME280;26984;59.928;30.306;2023-03-01T11:13:31;101075.78;;;-1.12;100.00
41250;BME280;26984;59.928;30.306;2023-03-01T11:15:59;101096.13;;;-1.12;100.00
41250;BME280;26984;59.928;30.306;2023-03-01T11:18:27;101081.59;;;-1.18;100.00
41250;BME280;26984;59.928;30.306;2023-03-01T11:20:58;101066.19;;;-1.13;100.00
41250;BME280;26984;59.928;30.306;2023-03-01T11:23:27;101058.94;;;-1.11;100.00
41250;BME280;26984;59.928;30.306;2023-03-01T11:25:56;101054.38;;;-1.09;100.00
41250;BME280;26984;59.928;30.306;2023-03-01T11:28:24;101042.41;;;-1.13;100.00
41250;BME280;26984;59.928;30.306;2023-03-01T11:30:53;101030.91;;;-1.02;100.00
41250;BME280;26984;59.928;30.306;2023-03-01T11:33:24;101049.22;;;-1.10;100.00
41250;BME280;26984;59.928;30.306;2023-03-01T11:36:01;101046.28;;;-1.17;100.00
41250;BME280;26984;59.928;30.306;2023-03-01T11:38:32;101047.44;;;-1.10;100.00
41250;BME280;26984;59.928;30.306;2023-03-01T11:41:01;101044.25;;;-1.04;100.00
41250;BME280;26984;59.928;30.306;2023-03-01T11:43:34;101041.59;;;-1.04;100.00
41250;BME280;26984;59.928;30.306;2023-03-01T11:46:11;101051.22;;;-1.03;100.00
41250;BME280;26984;59.928;30.306;2023-03-01T11:48:51;101037.22;;;-1.14;100.00
41250;BME280;26984;59.928;30.306;2023-03-01T11:51:23;101039.88;;;-1.14;100.00
41250;BME280;26984;59.928;30.306;2023-03-01T11:53:58;101048.38;;;-1.11;100.00
41250;BME280;26984;59.928;30.306;2023-03-01T11:56:29;101047.09;;;-1.16;100.00
41250;BME280;26984;59.928;30.306;2023-03-01T11:59:06;101046.06;;;-1.25;100.00
41250;BME280;26984;59.928;30.306;2023-03-01T12:01:54;101021.84;;;-1.30;100.00
41250;BME280;26984;59.928;30.306;2023-03-01T12:04:40;101039.22;;;-1.07;100.00
41250;BME280;26984;59.928;30.306;2023-03-01T12:07:20;101025.56;;;-1.12;100.00
41250;BME280;26984;59.928;30.306;2023-03-01T12:09:55;101037.53;;;-1.08;100.00
41250;BME280;26984;59.928;30.306;2023-03-01T12:12:34;101029.03;;;-1.11;100.00
41250;BME280;26984;59.928;30.306;2023-03-01T12:15:11;101021.19;;;-1.23;100.00
41250;BME280;26984;59.928;30.306;2023-03-01T12:17:51;101020.75;;;-1.28;100.00
41250;BME280;26984;59.928;30.306;2023-03-01T12:20:28;101013.50;;;-1.26;100.00
41250;BME280;26984;59.928;30.306;2023-03-01T12:23:02;101010.81;;;-1.35;100.00
41250;BME280;26984;59.928;30.306;2023-03-01T12:25:35;101010.81;;;-1.35;100.00
41250;BME280;26984;59.928;30.306;2023-03-01T12:28:13;100998.97;;;-1.41;100.00
41250;BME280;26984;59.928;30.306;2023-03-01T12:30:49;101000.56;;;-1.50;100.00
41250;BME280;26984;59.928;30.306;2023-03-01T12:33:21;100990.47;;;-1.45;100.00
41250;BME280;26984;59.928;30.306;2023-03-01T12:36:05;100993.50;;;-1.49;100.00
41250;BME280;26984;59.928;30.306;2023-03-01T12:38:40;100989.72;;;-1.47;100.00
41250;BME280;26984;59.928;30.306;2023-03-01T12:41:19;100976.25;;;-1.43;100.00
41250;BME280;26984;59.928;30.306;2023-03-01T12:43:52;101000.31;;;-1.47;100.00
41250;BME280;26984;59.928;30.306;2023-03-01T12:46:37;100977.31;;;-1.56;100.00